createdAt,value
2017-03-22T00:00:27.555Z,1005.35
2017-03-22T00:01:27.939Z,1005.33
2017-03-22T00:02:28.478Z,1005.38
2017-03-22T00:03:29.003Z,1005.33
2017-03-22T00:04:29.547Z,1005.36
2017-03-22T00:05:30.067Z,1005.35
2017-03-22T00:06:30.604Z,1005.33
2017-03-22T00:07:31.132Z,1005.33
2017-03-22T00:08:31.674Z,1005.38
2017-03-22T00:09:32.198Z,1005.38
2017-03-22T00:10:32.736Z,1005.39
2017-03-22T00:11:33.263Z,1005.35
2017-03-22T00:12:33.798Z,1005.45
2017-03-22T00:13:34.326Z,1005.41
2017-03-22T00:14:34.859Z,1005.39
2017-03-22T00:15:35.390Z,1005.44
2017-03-22T00:16:35.925Z,1005.39
2017-03-22T00:17:36.458Z,1005.42
2017-03-22T00:18:36.986Z,1005.39
2017-03-22T00:19:37.527Z,1005.43
2017-03-22T00:20:38.080Z,1005.45
2017-03-22T00:21:38.586Z,1005.52
2017-03-22T00:22:39.122Z,1005.57
2017-03-22T00:23:39.697Z,1005.51
2017-03-22T00:24:40.181Z,1005.52
2017-03-22T00:25:40.743Z,1005.51
2017-03-22T00:26:41.252Z,1005.49
2017-03-22T00:27:41.783Z,1005.49
2017-03-22T00:28:42.319Z,1005.48
2017-03-22T00:29:42.854Z,1005.49
2017-03-22T00:30:43.397Z,1005.45
2017-03-22T00:31:43.927Z,1005.47
2017-03-22T00:32:44.460Z,1005.43
2017-03-22T00:33:44.996Z,1005.48
2017-03-22T00:34:45.538Z,1005.46
2017-03-22T00:35:46.059Z,1005.49
2017-03-22T00:36:46.591Z,1005.48
2017-03-22T00:37:47.124Z,1005.48
2017-03-22T00:38:47.653Z,1005.48
2017-03-22T00:39:48.331Z,1005.44
2017-03-22T00:40:48.722Z,1005.46
2017-03-22T00:41:49.245Z,1005.46
2017-03-22T00:42:49.790Z,1005.48
2017-03-22T00:43:50.311Z,1005.50
2017-03-22T00:44:50.995Z,1005.49
2017-03-22T00:45:51.378Z,1005.44
2017-03-22T00:46:51.907Z,1005.48
2017-03-22T00:47:52.440Z,1005.40
2017-03-22T00:48:52.974Z,1005.39
2017-03-22T00:49:53.507Z,1005.40
2017-03-22T00:50:54.047Z,1005.43
2017-03-22T00:51:54.568Z,1005.43
2017-03-22T00:52:55.102Z,1005.45
2017-03-22T00:53:55.640Z,1005.43
2017-03-22T00:54:56.165Z,1005.38
2017-03-22T00:55:56.696Z,1005.39
2017-03-22T00:56:57.234Z,1005.37
2017-03-22T00:57:57.763Z,1005.37
2017-03-22T00:58:58.291Z,1005.33
2017-03-22T00:59:58.828Z,1005.33
2017-03-22T01:00:59.358Z,1005.29
2017-03-22T01:01:59.885Z,1005.27
2017-03-22T01:03:00.413Z,1005.32
2017-03-22T01:04:00.950Z,1005.33
2017-03-22T01:05:01.482Z,1005.33
2017-03-22T01:06:02.015Z,1005.30
2017-03-22T01:07:02.550Z,1005.30
2017-03-22T01:08:03.093Z,1005.33
2017-03-22T01:09:03.765Z,1005.29
2017-03-22T01:10:04.149Z,1005.31
2017-03-22T01:11:04.692Z,1005.33
2017-03-22T01:12:05.221Z,1005.32
2017-03-22T01:13:05.759Z,1005.40
2017-03-22T01:14:06.293Z,1005.39
2017-03-22T01:15:06.832Z,1005.39
2017-03-22T01:16:07.362Z,1005.38
2017-03-22T01:17:07.896Z,1005.42
2017-03-22T01:18:08.430Z,1005.41
2017-03-22T01:19:08.956Z,1005.39
2017-03-22T01:20:09.496Z,1005.34
2017-03-22T01:21:10.019Z,1005.32
2017-03-22T01:22:10.552Z,1005.30
2017-03-22T01:23:11.087Z,1005.31
2017-03-22T01:24:11.616Z,1005.28
2017-03-22T01:25:12.147Z,1005.26
2017-03-22T01:26:12.685Z,1005.28
2017-03-22T01:27:13.210Z,1005.28
2017-03-22T01:28:13.742Z,1005.30
2017-03-22T01:29:14.274Z,1005.28
2017-03-22T01:30:14.808Z,1005.27
2017-03-22T01:31:15.339Z,1005.33
2017-03-22T01:32:15.877Z,1005.31
2017-03-22T01:33:16.404Z,1005.28
2017-03-22T01:34:16.938Z,1005.32
2017-03-22T01:35:17.478Z,1005.34
2017-03-22T01:36:18.151Z,1005.33
2017-03-22T01:37:18.549Z,1005.30
2017-03-22T01:38:19.120Z,1005.28
2017-03-22T01:39:19.607Z,1005.33
2017-03-22T01:40:20.136Z,1005.29
2017-03-22T01:41:20.680Z,1005.34
2017-03-22T01:42:21.202Z,1005.33
2017-03-22T01:43:21.743Z,1005.33
2017-03-22T01:44:22.267Z,1005.41
2017-03-22T01:45:22.806Z,1005.40
2017-03-22T01:46:23.333Z,1005.41
2017-03-22T01:47:23.867Z,1005.44
2017-03-22T01:48:24.401Z,1005.39
2017-03-22T01:49:24.929Z,1005.42
2017-03-22T01:50:25.462Z,1005.45
2017-03-22T01:51:25.994Z,1005.48
2017-03-22T01:52:26.528Z,1005.40
2017-03-22T01:53:27.060Z,1005.42
2017-03-22T01:54:27.600Z,1005.49
2017-03-22T01:55:28.130Z,1005.47
2017-03-22T01:56:28.674Z,1005.49
2017-03-22T01:57:29.356Z,1005.56
2017-03-22T01:58:29.742Z,1005.52
2017-03-22T01:59:30.281Z,1005.47
2017-03-22T02:00:30.809Z,1005.46
2017-03-22T02:01:31.343Z,1005.49
2017-03-22T02:02:31.873Z,1005.43
2017-03-22T02:03:32.415Z,1005.49
2017-03-22T02:04:32.944Z,1005.47
2017-03-22T02:05:33.479Z,1005.49
2017-03-22T02:06:34.005Z,1005.40
2017-03-22T02:07:34.551Z,1005.50
2017-03-22T02:08:35.070Z,1005.49
2017-03-22T02:09:35.601Z,1005.49
2017-03-22T02:10:36.134Z,1005.49
2017-03-22T02:11:36.665Z,1005.45
2017-03-22T02:12:37.205Z,1005.43
2017-03-22T02:13:37.732Z,1005.45
2017-03-22T02:14:38.267Z,1005.39
2017-03-22T02:15:38.794Z,1005.45
2017-03-22T02:16:39.325Z,1005.42
2017-03-22T02:17:39.864Z,1005.32
2017-03-22T02:18:40.390Z,1005.33
2017-03-22T02:19:40.921Z,1005.35
2017-03-22T02:20:41.461Z,1005.34
2017-03-22T02:21:41.995Z,1005.38
2017-03-22T02:22:42.525Z,1005.35
2017-03-22T02:23:43.505Z,1005.36
2017-03-22T02:24:43.587Z,1005.34
2017-03-22T02:25:44.116Z,1005.37
2017-03-22T02:26:44.650Z,1005.38
2017-03-22T02:27:45.185Z,1005.36
2017-03-22T02:28:45.716Z,1005.45
2017-03-22T02:29:46.251Z,1005.32
2017-03-22T02:30:46.780Z,1005.43
2017-03-22T02:31:47.309Z,1005.43
2017-03-22T02:32:47.845Z,1005.44
2017-03-22T02:33:48.387Z,1005.45
2017-03-22T02:34:48.910Z,1005.51
2017-03-22T02:35:49.447Z,1005.43
2017-03-22T02:36:49.984Z,1005.45
2017-03-22T02:37:50.519Z,1005.51
2017-03-22T02:38:51.051Z,1005.51
2017-03-22T02:39:51.584Z,1005.46
2017-03-22T02:40:52.113Z,1005.54
2017-03-22T02:41:52.656Z,1005.60
2017-03-22T02:42:53.191Z,1005.54
2017-03-22T02:43:53.717Z,1005.59
2017-03-22T02:44:54.259Z,1005.63
2017-03-22T02:45:54.773Z,1005.60
2017-03-22T02:46:55.309Z,1005.59
2017-03-22T02:47:55.853Z,1005.58
2017-03-22T02:48:56.373Z,1005.63
2017-03-22T02:49:56.910Z,1005.67
2017-03-22T02:50:57.440Z,1005.59
2017-03-22T02:51:57.966Z,1005.60
2017-03-22T02:52:58.502Z,1005.58
2017-03-22T02:53:59.036Z,1005.60
2017-03-22T02:54:59.566Z,1005.61
2017-03-22T02:56:00.099Z,1005.60
2017-03-22T02:57:00.632Z,1005.59
2017-03-22T02:58:01.162Z,1005.61
2017-03-22T02:59:01.696Z,1005.67
2017-03-22T03:00:02.220Z,1005.63
2017-03-22T03:01:02.759Z,1005.70
2017-03-22T03:02:03.297Z,1005.62
2017-03-22T03:03:03.824Z,1005.66
2017-03-22T03:04:04.364Z,1005.66
2017-03-22T03:05:04.887Z,1005.68
2017-03-22T03:06:05.419Z,1005.64
2017-03-22T03:07:05.957Z,1005.59
2017-03-22T03:08:06.496Z,1005.63
2017-03-22T03:09:07.026Z,1005.59
2017-03-22T03:10:07.556Z,1005.59
2017-03-22T03:11:08.122Z,1005.65
2017-03-22T03:12:08.621Z,1005.59
2017-03-22T03:13:09.159Z,1005.65
2017-03-22T03:14:09.683Z,1005.60
2017-03-22T03:15:10.213Z,1005.60
2017-03-22T03:16:10.743Z,1005.64
2017-03-22T03:17:11.285Z,1005.68
2017-03-22T03:18:11.820Z,1005.64
2017-03-22T03:19:12.357Z,1005.68
2017-03-22T03:20:12.889Z,1005.65
2017-03-22T03:21:13.427Z,1005.62
2017-03-22T03:22:13.960Z,1005.65
2017-03-22T03:23:14.497Z,1005.62
2017-03-22T03:24:15.034Z,1005.58
2017-03-22T03:25:15.556Z,1005.61
2017-03-22T03:26:16.101Z,1005.59
2017-03-22T03:27:16.619Z,1005.63
2017-03-22T03:28:17.152Z,1005.62
2017-03-22T03:29:17.682Z,1005.61
2017-03-22T03:30:18.362Z,1005.64
2017-03-22T03:31:18.740Z,1005.62
2017-03-22T03:32:19.286Z,1005.71
2017-03-22T03:33:19.814Z,1005.67
2017-03-22T03:34:20.351Z,1005.76
2017-03-22T03:35:20.886Z,1005.77
2017-03-22T03:36:21.414Z,1005.78
2017-03-22T03:37:21.947Z,1005.80
2017-03-22T03:38:22.489Z,1005.81
2017-03-22T03:39:23.010Z,1005.76
2017-03-22T03:40:23.539Z,1005.74
2017-03-22T03:41:24.075Z,1005.79
2017-03-22T03:42:24.616Z,1005.76
2017-03-22T03:43:25.284Z,1005.77
2017-03-22T03:44:25.678Z,1005.78
2017-03-22T03:45:26.211Z,1005.79
2017-03-22T03:46:26.746Z,1005.78
2017-03-22T03:47:27.263Z,1005.83
2017-03-22T03:48:27.809Z,1005.81
2017-03-22T03:49:28.326Z,1005.87
2017-03-22T03:50:28.866Z,1005.84
2017-03-22T03:51:29.394Z,1005.83
2017-03-22T03:52:29.935Z,1005.81
2017-03-22T03:53:30.466Z,1005.83
2017-03-22T03:54:31.000Z,1005.82
2017-03-22T03:55:31.530Z,1005.81
2017-03-22T03:56:32.061Z,1005.79
2017-03-22T03:57:32.597Z,1005.79
2017-03-22T03:58:33.141Z,1005.85
2017-03-22T03:59:33.675Z,1005.85
2017-03-22T04:00:34.221Z,1005.87
2017-03-22T04:01:34.745Z,1005.82
2017-03-22T04:02:35.285Z,1005.89
2017-03-22T04:03:35.954Z,1005.91
2017-03-22T04:04:36.488Z,1005.92
2017-03-22T04:05:36.872Z,1005.90
2017-03-22T04:06:37.411Z,1005.93
2017-03-22T04:07:37.939Z,1005.89
2017-03-22T04:08:38.480Z,1005.93
2017-03-22T04:09:39.007Z,1005.90
2017-03-22T04:10:39.537Z,1005.94
2017-03-22T04:11:40.213Z,1005.88
2017-03-22T04:12:40.606Z,1005.85
2017-03-22T04:13:41.131Z,1005.93
2017-03-22T04:14:41.659Z,1005.91
2017-03-22T04:15:42.192Z,1005.91
2017-03-22T04:16:42.718Z,1005.94
2017-03-22T04:17:43.251Z,1005.95
2017-03-22T04:18:43.781Z,1005.93
2017-03-22T04:19:44.314Z,1005.89
2017-03-22T04:20:44.855Z,1005.90
2017-03-22T04:21:45.376Z,1005.91
2017-03-22T04:22:46.055Z,1005.91
2017-03-22T04:23:46.587Z,1005.89
2017-03-22T04:24:46.988Z,1005.92
2017-03-22T04:25:47.507Z,1005.94
2017-03-22T04:26:48.041Z,1005.94
2017-03-22T04:27:48.569Z,1005.97
2017-03-22T04:28:49.113Z,1005.96
2017-03-22T04:29:49.634Z,1005.94
2017-03-22T04:30:50.333Z,1005.98
2017-03-22T04:31:50.684Z,1005.95
2017-03-22T04:32:51.230Z,1005.96
2017-03-22T04:33:51.751Z,1005.91
2017-03-22T04:34:52.283Z,1005.95
2017-03-22T04:35:52.816Z,1005.94
2017-03-22T04:36:53.347Z,1005.96
2017-03-22T04:37:53.874Z,1005.97
2017-03-22T04:38:54.552Z,1005.95
2017-03-22T04:39:54.940Z,1005.92
2017-03-22T04:40:55.480Z,1005.90
2017-03-22T04:41:56.017Z,1005.92
2017-03-22T04:42:56.549Z,1005.91
2017-03-22T04:43:57.085Z,1005.95
2017-03-22T04:44:57.622Z,1005.88
2017-03-22T04:45:58.146Z,1005.96
2017-03-22T04:46:58.680Z,1005.94
2017-03-22T04:47:59.213Z,1005.97
2017-03-22T04:48:59.744Z,1005.97
2017-03-22T04:50:00.273Z,1005.98
2017-03-22T04:51:00.807Z,1005.99
2017-03-22T04:52:01.338Z,1005.94
2017-03-22T04:53:01.872Z,1006.00
2017-03-22T04:54:02.400Z,1005.93
2017-03-22T04:55:02.928Z,1005.89
2017-03-22T04:56:03.467Z,1005.89
2017-03-22T04:57:03.998Z,1005.91
2017-03-22T04:58:04.526Z,1005.90
2017-03-22T04:59:05.068Z,1005.94
2017-03-22T05:00:05.592Z,1005.99
2017-03-22T05:01:06.266Z,1005.96
2017-03-22T05:02:06.655Z,1006.00
2017-03-22T05:03:07.191Z,1006.02
2017-03-22T05:04:07.731Z,1005.96
2017-03-22T05:05:08.246Z,1005.93
2017-03-22T05:06:08.774Z,1005.99
2017-03-22T05:07:09.306Z,1006.01
2017-03-22T05:08:09.845Z,1006.03
2017-03-22T05:09:10.517Z,1006.02
2017-03-22T05:10:10.903Z,1006.02
2017-03-22T05:11:11.577Z,1005.96
2017-03-22T05:12:11.961Z,1005.97
2017-03-22T05:13:12.492Z,1005.98
2017-03-22T05:14:13.020Z,1005.93
2017-03-22T05:15:13.553Z,1005.90
2017-03-22T05:16:14.080Z,1005.90
2017-03-22T05:17:14.620Z,1005.96
2017-03-22T05:18:15.152Z,1005.95
2017-03-22T05:19:15.690Z,1005.98
2017-03-22T05:20:16.223Z,1006.06
2017-03-22T05:21:16.749Z,1006.05
2017-03-22T05:22:17.282Z,1006.04
2017-03-22T05:23:17.819Z,1006.09
2017-03-22T05:24:18.353Z,1006.06
2017-03-22T05:25:18.891Z,1006.01
2017-03-22T05:26:19.426Z,1005.99
2017-03-22T05:27:19.965Z,1005.99
2017-03-22T05:28:20.489Z,1006.01
2017-03-22T05:29:21.015Z,1005.98
2017-03-22T05:30:21.544Z,1005.97
2017-03-22T05:31:22.077Z,1005.97
2017-03-22T05:32:22.607Z,1005.96
2017-03-22T05:33:23.152Z,1005.98
2017-03-22T05:34:23.824Z,1005.99
2017-03-22T05:35:24.214Z,1006.02
2017-03-22T05:36:24.737Z,1005.99
2017-03-22T05:37:25.280Z,1005.98
2017-03-22T05:38:25.803Z,1005.99
2017-03-22T05:39:26.338Z,1006.01
2017-03-22T05:40:26.870Z,1005.97
2017-03-22T05:41:27.431Z,1005.97
2017-03-22T05:42:28.074Z,1005.93
2017-03-22T05:43:28.475Z,1005.92
2017-03-22T05:44:29.000Z,1005.88
2017-03-22T05:45:29.529Z,1005.91
2017-03-22T05:46:30.057Z,1005.92
2017-03-22T05:47:30.598Z,1005.83
2017-03-22T05:48:31.121Z,1005.88
2017-03-22T05:49:31.669Z,1005.86
2017-03-22T05:50:32.331Z,1005.82
2017-03-22T05:51:32.722Z,1005.82
2017-03-22T05:52:33.252Z,1005.83
2017-03-22T05:53:33.790Z,1005.84
2017-03-22T05:54:34.322Z,1005.84
2017-03-22T05:55:34.855Z,1005.84
2017-03-22T05:56:35.376Z,1005.89
2017-03-22T05:57:35.919Z,1005.91
2017-03-22T05:58:36.483Z,1005.93
2017-03-22T05:59:36.986Z,1005.94
2017-03-22T06:00:37.515Z,1005.93
2017-03-22T06:01:38.037Z,1005.92
2017-03-22T06:02:38.572Z,1006.00
2017-03-22T06:03:39.254Z,1006.03
2017-03-22T06:04:39.648Z,1006.00
2017-03-22T06:05:40.187Z,1005.96
2017-03-22T06:06:40.727Z,1005.98
2017-03-22T06:07:41.248Z,1005.97
2017-03-22T06:08:41.785Z,1005.90
2017-03-22T06:09:42.315Z,1005.98
2017-03-22T06:10:42.835Z,1005.99
2017-03-22T06:11:43.375Z,1006.06
2017-03-22T06:12:43.901Z,1006.03
2017-03-22T06:13:44.437Z,1006.07
2017-03-22T06:14:44.974Z,1006.06
2017-03-22T06:15:45.505Z,1006.05
2017-03-22T06:16:46.027Z,1006.12
2017-03-22T06:17:46.563Z,1006.11
2017-03-22T06:18:47.087Z,1006.17
2017-03-22T06:19:47.628Z,1006.18
2017-03-22T06:20:48.158Z,1006.15
2017-03-22T06:21:48.978Z,1006.13
2017-03-22T06:22:49.218Z,1006.11
2017-03-22T06:23:49.762Z,1006.07
2017-03-22T06:24:50.279Z,1006.13
2017-03-22T06:25:50.825Z,1006.10
2017-03-22T06:26:51.345Z,1006.11
2017-03-22T06:27:51.888Z,1006.12
2017-03-22T06:28:52.409Z,1006.10
2017-03-22T06:29:52.955Z,1006.09
2017-03-22T06:30:53.473Z,1006.13
2017-03-22T06:31:54.011Z,1006.14
2017-03-22T06:32:54.535Z,1006.13
2017-03-22T06:33:55.069Z,1006.18
2017-03-22T06:34:55.602Z,1006.07
2017-03-22T06:35:56.126Z,1006.13
2017-03-22T06:36:56.658Z,1006.12
2017-03-22T06:37:57.198Z,1006.13
2017-03-22T06:38:57.723Z,1006.15
2017-03-22T06:39:58.402Z,1006.19
2017-03-22T06:40:58.782Z,1006.25
2017-03-22T06:41:59.325Z,1006.23
2017-03-22T06:42:59.849Z,1006.21
2017-03-22T06:44:00.390Z,1006.19
2017-03-22T06:45:00.915Z,1006.23
2017-03-22T06:46:01.449Z,1006.17
2017-03-22T06:47:02.132Z,1006.18
2017-03-22T06:48:02.532Z,1006.18
2017-03-22T06:49:03.062Z,1006.21
2017-03-22T06:50:03.598Z,1006.19
2017-03-22T06:51:04.132Z,1006.18
2017-03-22T06:52:04.674Z,1006.16
2017-03-22T06:53:05.202Z,1006.22
2017-03-22T06:54:05.872Z,1006.20
2017-03-22T06:55:06.398Z,1006.22
2017-03-22T06:56:06.790Z,1006.27
2017-03-22T06:57:07.329Z,1006.24
2017-03-22T06:58:07.857Z,1006.24
2017-03-22T06:59:08.379Z,1006.26
2017-03-22T07:00:08.910Z,1006.26
2017-03-22T07:01:09.442Z,1006.29
2017-03-22T07:02:10.120Z,1006.28
2017-03-22T07:03:10.517Z,1006.31
2017-03-22T07:04:11.044Z,1006.25
2017-03-22T07:05:11.577Z,1006.27
2017-03-22T07:06:12.106Z,1006.20
2017-03-22T07:07:12.631Z,1006.24
2017-03-22T07:08:13.310Z,1006.28
2017-03-22T07:09:13.697Z,1006.24
2017-03-22T07:10:14.233Z,1006.32
2017-03-22T07:11:14.956Z,1006.32
2017-03-22T07:12:15.344Z,1006.32
2017-03-22T07:13:15.826Z,1006.33
2017-03-22T07:14:16.371Z,1006.29
2017-03-22T07:15:16.892Z,1006.24
2017-03-22T07:16:17.434Z,1006.26
2017-03-22T07:17:17.962Z,1006.24
2017-03-22T07:18:18.494Z,1006.24
2017-03-22T07:19:19.211Z,1006.24
2017-03-22T07:20:19.549Z,1006.27
2017-03-22T07:21:20.078Z,1006.29
2017-03-22T07:22:20.617Z,1006.27
2017-03-22T07:23:21.147Z,1006.26
2017-03-22T07:24:21.690Z,1006.21
2017-03-22T07:25:22.205Z,1006.26
2017-03-22T07:26:22.746Z,1006.22
2017-03-22T07:27:23.274Z,1006.25
2017-03-22T07:28:23.810Z,1006.24
2017-03-22T07:29:24.350Z,1006.26
2017-03-22T07:30:24.890Z,1006.29
2017-03-22T07:31:25.420Z,1006.32
2017-03-22T07:32:25.961Z,1006.33
2017-03-22T07:33:26.487Z,1006.29
2017-03-22T07:34:27.025Z,1006.33
2017-03-22T07:35:27.550Z,1006.33
2017-03-22T07:36:28.089Z,1006.35
2017-03-22T07:37:28.619Z,1006.39
2017-03-22T07:38:29.158Z,1006.37
2017-03-22T07:39:29.695Z,1006.38
2017-03-22T07:40:30.218Z,1006.37
2017-03-22T07:41:30.748Z,1006.38
2017-03-22T07:42:31.280Z,1006.46
2017-03-22T07:43:31.805Z,1006.44
2017-03-22T07:44:32.351Z,1006.45
2017-03-22T07:45:32.874Z,1006.46
2017-03-22T07:46:33.411Z,1006.46
2017-03-22T07:47:33.939Z,1006.44
2017-03-22T07:48:34.477Z,1006.43
2017-03-22T07:49:35.005Z,1006.49
2017-03-22T07:50:35.540Z,1006.41
2017-03-22T07:51:36.066Z,1006.44
2017-03-22T07:52:36.746Z,1006.45
2017-03-22T07:53:37.128Z,1006.43
2017-03-22T07:54:37.667Z,1006.49
2017-03-22T07:55:38.196Z,1006.49
2017-03-22T07:56:38.728Z,1006.51
2017-03-22T07:57:39.261Z,1006.51
2017-03-22T07:58:39.792Z,1006.50
2017-03-22T07:59:40.315Z,1006.50
2017-03-22T08:00:40.849Z,1006.51
2017-03-22T08:01:41.381Z,1006.52
2017-03-22T08:02:41.919Z,1006.49
2017-03-22T08:03:42.440Z,1006.52
2017-03-22T08:04:42.984Z,1006.54
2017-03-22T08:05:43.503Z,1006.50
2017-03-22T08:06:44.044Z,1006.44
2017-03-22T08:07:44.577Z,1006.45
2017-03-22T08:08:45.109Z,1006.50
2017-03-22T08:09:45.630Z,1006.47
2017-03-22T08:10:46.166Z,1006.45
2017-03-22T08:11:46.704Z,1006.56
2017-03-22T08:12:47.389Z,1006.52
2017-03-22T08:13:47.776Z,1006.50
2017-03-22T08:14:48.451Z,1006.50
2017-03-22T08:15:48.835Z,1006.52
2017-03-22T08:16:49.370Z,1006.56
2017-03-22T08:17:49.900Z,1006.57
2017-03-22T08:18:50.436Z,1006.60
2017-03-22T08:19:50.972Z,1006.54
2017-03-22T08:20:51.498Z,1006.56
2017-03-22T08:21:52.029Z,1006.52
2017-03-22T08:22:52.564Z,1006.62
2017-03-22T08:23:53.092Z,1006.60
2017-03-22T08:24:53.630Z,1006.57
2017-03-22T08:25:54.153Z,1006.57
2017-03-22T08:26:54.689Z,1006.57
2017-03-22T08:27:55.221Z,1006.59
2017-03-22T08:28:55.751Z,1006.60
2017-03-22T08:29:56.279Z,1006.60
2017-03-22T08:30:56.815Z,1006.57
2017-03-22T08:31:57.339Z,1006.61
2017-03-22T08:32:57.872Z,1006.59
2017-03-22T08:33:58.700Z,1006.63
2017-03-22T08:34:58.940Z,1006.60
2017-03-22T08:35:59.468Z,1006.62
2017-03-22T08:37:00.007Z,1006.61
2017-03-22T08:38:00.530Z,1006.57
2017-03-22T08:39:01.066Z,1006.53
2017-03-22T08:40:01.600Z,1006.55
2017-03-22T08:41:02.135Z,1006.57
2017-03-22T08:42:02.662Z,1006.58
2017-03-22T08:43:03.193Z,1006.61
2017-03-22T08:44:03.725Z,1006.62
2017-03-22T08:45:04.263Z,1006.60
2017-03-22T08:46:04.787Z,1006.57
2017-03-22T08:47:05.325Z,1006.67
2017-03-22T08:48:05.850Z,1006.64
2017-03-22T08:49:06.393Z,1006.63
2017-03-22T08:50:06.916Z,1006.64
2017-03-22T08:51:07.452Z,1006.66
2017-03-22T08:52:07.994Z,1006.60
2017-03-22T08:53:08.529Z,1006.58
2017-03-22T08:54:09.059Z,1006.61
2017-03-22T08:55:09.608Z,1006.63
2017-03-22T08:56:10.122Z,1006.52
2017-03-22T08:57:10.666Z,1006.51
2017-03-22T08:58:11.188Z,1006.54
2017-03-22T08:59:11.724Z,1006.52
2017-03-22T09:00:12.252Z,1006.56
2017-03-22T09:01:12.790Z,1006.55
2017-03-22T09:02:13.312Z,1006.51
2017-03-22T09:03:13.847Z,1006.50
2017-03-22T09:04:14.375Z,1006.48
2017-03-22T09:05:14.911Z,1006.47
2017-03-22T09:06:15.437Z,1006.51
2017-03-22T09:07:15.976Z,1006.52
2017-03-22T09:08:16.509Z,1006.51
2017-03-22T09:09:17.032Z,1006.46
2017-03-22T09:10:17.565Z,1006.48
2017-03-22T09:11:18.100Z,1006.48
2017-03-22T09:12:18.638Z,1006.46
2017-03-22T09:13:19.165Z,1006.51
2017-03-22T09:14:19.689Z,1006.48
2017-03-22T09:15:20.220Z,1006.50
2017-03-22T09:16:20.752Z,1006.48
2017-03-22T09:17:21.284Z,1006.43
2017-03-22T09:18:21.818Z,1006.54
2017-03-22T09:19:22.354Z,1006.54
2017-03-22T09:20:22.877Z,1006.49
2017-03-22T09:21:23.412Z,1006.58
2017-03-22T09:22:23.941Z,1006.57
2017-03-22T09:23:24.483Z,1006.56
2017-03-22T09:24:25.006Z,1006.61
2017-03-22T09:25:25.541Z,1006.59
2017-03-22T09:26:26.071Z,1006.57
2017-03-22T09:27:26.607Z,1006.58
2017-03-22T09:28:27.139Z,1006.57
2017-03-22T09:29:27.673Z,1006.56
2017-03-22T09:30:28.202Z,1006.58
2017-03-22T09:31:28.737Z,1006.49
2017-03-22T09:32:29.303Z,1006.60
2017-03-22T09:33:29.812Z,1006.58
2017-03-22T09:34:30.341Z,1006.56
2017-03-22T09:35:30.882Z,1006.55
2017-03-22T09:36:31.408Z,1006.53
2017-03-22T09:37:31.948Z,1006.57
2017-03-22T09:38:32.487Z,1006.56
2017-03-22T09:39:33.013Z,1006.59
2017-03-22T09:40:33.541Z,1006.56
2017-03-22T09:41:34.075Z,1006.49
2017-03-22T09:42:34.606Z,1006.43
2017-03-22T09:43:35.146Z,1006.49
2017-03-22T09:44:35.669Z,1006.47
2017-03-22T09:45:36.207Z,1006.49
2017-03-22T09:46:36.734Z,1006.42
2017-03-22T09:47:37.271Z,1006.40
2017-03-22T09:48:37.794Z,1006.46
2017-03-22T09:49:38.333Z,1006.38
2017-03-22T09:50:38.855Z,1006.40
2017-03-22T09:51:39.392Z,1006.39
2017-03-22T09:52:39.919Z,1006.30
2017-03-22T09:53:40.455Z,1006.29
2017-03-22T09:54:40.981Z,1006.35
2017-03-22T09:55:41.521Z,1006.27
2017-03-22T09:56:42.047Z,1006.36
2017-03-22T09:57:42.581Z,1006.29
2017-03-22T09:58:43.112Z,1006.31
2017-03-22T09:59:43.646Z,1006.31
2017-03-22T10:00:44.180Z,1006.28
2017-03-22T10:01:44.737Z,1006.31
2017-03-22T10:02:45.238Z,1006.32
2017-03-22T10:03:45.770Z,1006.29
2017-03-22T10:04:46.301Z,1006.28
2017-03-22T10:05:46.981Z,1006.36
2017-03-22T10:06:47.365Z,1006.33
2017-03-22T10:07:47.900Z,1006.21
2017-03-22T10:08:48.429Z,1006.22
2017-03-22T10:09:48.966Z,1006.20
2017-03-22T10:10:49.491Z,1006.18
2017-03-22T10:11:50.026Z,1006.20
2017-03-22T10:12:50.563Z,1006.20
2017-03-22T10:13:51.102Z,1006.17
2017-03-22T10:14:51.625Z,1006.24
2017-03-22T10:15:52.162Z,1006.16
2017-03-22T10:16:52.699Z,1006.20
2017-03-22T10:17:53.223Z,1006.13
2017-03-22T10:18:53.760Z,1006.18
2017-03-22T10:19:54.305Z,1006.22
2017-03-22T10:20:54.829Z,1006.23
2017-03-22T10:21:55.504Z,1006.17
2017-03-22T10:22:55.898Z,1006.22
2017-03-22T10:23:56.424Z,1006.18
2017-03-22T10:24:56.953Z,1006.18
2017-03-22T10:25:57.499Z,1006.20
2017-03-22T10:26:58.021Z,1006.14
2017-03-22T10:27:58.567Z,1006.17
2017-03-22T10:28:59.232Z,1006.16
2017-03-22T10:29:59.627Z,1006.15
2017-03-22T10:31:00.165Z,1006.17
2017-03-22T10:32:00.693Z,1006.21
2017-03-22T10:33:01.216Z,1006.21
2017-03-22T10:34:01.762Z,1006.18
2017-03-22T10:35:02.284Z,1006.20
2017-03-22T10:36:02.815Z,1006.16
2017-03-22T10:37:03.348Z,1006.14
2017-03-22T10:38:03.883Z,1006.18
2017-03-22T10:39:04.415Z,1006.11
2017-03-22T10:40:04.946Z,1006.15
2017-03-22T10:41:05.471Z,1006.12
2017-03-22T10:42:06.012Z,1006.14
2017-03-22T10:43:06.537Z,1006.16
2017-03-22T10:44:07.067Z,1006.12
2017-03-22T10:45:07.599Z,1006.15
2017-03-22T10:46:08.138Z,1006.19
2017-03-22T10:47:08.662Z,1006.12
2017-03-22T10:48:09.201Z,1006.19
2017-03-22T10:49:09.727Z,1006.15
2017-03-22T10:50:10.256Z,1006.17
2017-03-22T10:51:10.792Z,1006.15
2017-03-22T10:52:11.334Z,1006.12
2017-03-22T10:53:11.859Z,1006.13
2017-03-22T10:54:12.396Z,1006.15
2017-03-22T10:55:12.929Z,1006.07
2017-03-22T10:56:13.481Z,1006.13
2017-03-22T10:57:13.997Z,1006.15
2017-03-22T10:58:14.534Z,1006.14
2017-03-22T10:59:15.069Z,1006.07
2017-03-22T11:00:15.612Z,1006.00
2017-03-22T11:01:16.882Z,1006.07
2017-03-22T11:02:16.680Z,1006.07
2017-03-22T11:03:17.200Z,1006.06
2017-03-22T11:04:17.740Z,1006.02
2017-03-22T11:05:18.262Z,1006.02
2017-03-22T11:06:18.802Z,1006.01
2017-03-22T11:07:19.329Z,1006.02
2017-03-22T11:08:19.869Z,1006.03
2017-03-22T11:09:20.395Z,1006.03
2017-03-22T11:10:20.937Z,1006.03
2017-03-22T11:11:21.466Z,1006.02
2017-03-22T11:12:22.001Z,1005.93
2017-03-22T11:13:22.528Z,1006.00
2017-03-22T11:14:23.077Z,1006.00
2017-03-22T11:15:23.591Z,1006.01
2017-03-22T11:16:24.127Z,1005.98
2017-03-22T11:17:24.657Z,1006.01
2017-03-22T11:18:25.202Z,1005.96
2017-03-22T11:19:25.726Z,1006.01
2017-03-22T11:20:26.263Z,1005.97
2017-03-22T11:21:26.790Z,1005.98
2017-03-22T11:22:27.332Z,1005.99
2017-03-22T11:23:27.859Z,1005.97
2017-03-22T11:24:28.401Z,1005.93
2017-03-22T11:25:28.922Z,1006.01
2017-03-22T11:26:29.462Z,1006.04
2017-03-22T11:27:29.993Z,1005.99
2017-03-22T11:28:30.521Z,1006.05
2017-03-22T11:29:31.054Z,1006.01
2017-03-22T11:30:31.593Z,1006.01
2017-03-22T11:31:32.113Z,1006.00
2017-03-22T11:32:32.658Z,1005.96
2017-03-22T11:33:33.178Z,1005.94
2017-03-22T11:34:33.719Z,1005.94
2017-03-22T11:35:34.245Z,1005.95
2017-03-22T11:36:34.783Z,1005.97
2017-03-22T11:37:35.310Z,1005.95
2017-03-22T11:38:35.849Z,1005.91
2017-03-22T11:39:36.389Z,1005.95
2017-03-22T11:40:36.927Z,1005.92
2017-03-22T11:41:37.458Z,1005.89
2017-03-22T11:42:38.000Z,1005.89
2017-03-22T11:43:38.527Z,1005.95
2017-03-22T11:44:39.208Z,1005.89
2017-03-22T11:45:39.598Z,1005.87
2017-03-22T11:46:40.138Z,1005.96
2017-03-22T11:47:40.652Z,1005.88
2017-03-22T11:48:41.190Z,1005.89
2017-03-22T11:49:41.716Z,1005.89
2017-03-22T11:50:42.247Z,1005.91
2017-03-22T11:51:42.788Z,1005.88
2017-03-22T11:52:43.328Z,1005.88
2017-03-22T11:53:43.851Z,1005.88
2017-03-22T11:54:44.391Z,1005.84
2017-03-22T11:55:44.922Z,1005.81
2017-03-22T11:56:45.459Z,1005.83
2017-03-22T11:57:45.983Z,1005.83
2017-03-22T11:58:46.521Z,1005.79
2017-03-22T11:59:47.048Z,1005.79
2017-03-22T12:00:47.588Z,1005.78
2017-03-22T12:01:48.121Z,1005.84
2017-03-22T12:02:48.656Z,1005.84
2017-03-22T12:03:49.191Z,1005.81
2017-03-22T12:04:49.860Z,1005.81
2017-03-22T12:05:50.248Z,1005.80
2017-03-22T12:06:50.787Z,1005.80
2017-03-22T12:07:51.312Z,1005.74
2017-03-22T12:08:51.845Z,1005.73
2017-03-22T12:09:52.374Z,1005.72
2017-03-22T12:10:52.911Z,1005.74
2017-03-22T12:11:53.439Z,1005.74